createdAt,value
2019-04-07T00:00:25.044Z,78.42
2019-04-07T00:00:56.357Z,78.30
2019-04-07T00:01:28.410Z,78.29
2019-04-07T00:02:01.000Z,77.88
2019-04-07T00:02:32.433Z,77.76
2019-04-07T00:03:04.631Z,77.96
2019-04-07T00:03:37.311Z,77.39
2019-04-07T00:04:09.184Z,76.95
2019-04-07T00:04:40.789Z,76.77
2019-04-07T00:05:14.644Z,76.63
2019-04-07T00:05:45.532Z,76.52
2019-04-07T00:06:16.722Z,76.42
2019-04-07T00:06:47.921Z,76.30
2019-04-07T00:07:19.594Z,76.25
2019-04-07T00:07:51.019Z,76.44
2019-04-07T00:08:22.786Z,76.47
2019-04-07T00:08:54.502Z,76.51
2019-04-07T00:09:25.863Z,76.49
2019-04-07T00:09:57.171Z,77.12
2019-04-07T00:10:28.752Z,77.57
2019-04-07T00:11:00.219Z,77.63
2019-04-07T00:11:31.567Z,77.60
2019-04-07T00:12:02.808Z,77.65
2019-04-07T00:12:39.828Z,77.76
2019-04-07T00:13:11.310Z,77.98
2019-04-07T00:13:42.613Z,78.13
2019-04-07T00:14:15.862Z,78.31
2019-04-07T00:14:47.082Z,78.69
2019-04-07T00:15:18.388Z,78.61
2019-04-07T00:15:49.949Z,78.79
2019-04-07T00:16:21.537Z,78.74
2019-04-07T00:16:53.635Z,78.68
2019-04-07T00:17:27.256Z,78.91
2019-04-07T00:17:59.190Z,79.10
2019-04-07T00:18:33.276Z,79.00
2019-04-07T00:19:04.523Z,79.02
2019-04-07T00:19:35.759Z,79.29
2019-04-07T00:20:07.341Z,79.19
2019-04-07T00:20:38.699Z,79.32
2019-04-07T00:21:10.040Z,79.49
2019-04-07T00:21:41.250Z,79.29
2019-04-07T00:22:12.749Z,79.11
2019-04-07T00:22:44.542Z,79.00
2019-04-07T00:23:16.262Z,78.82
2019-04-07T00:23:47.843Z,78.35
2019-04-07T00:24:19.275Z,78.34
2019-04-07T00:24:50.537Z,78.78
2019-04-07T00:25:21.747Z,78.82
2019-04-07T00:25:53.008Z,78.97
2019-04-07T00:26:24.791Z,79.53
2019-04-07T00:26:56.258Z,79.80
2019-04-07T00:27:27.535Z,79.68
2019-04-07T00:27:58.848Z,79.12
2019-04-07T00:28:30.104Z,79.22
2019-04-07T00:29:01.671Z,79.25
2019-04-07T00:29:32.997Z,79.51
2019-04-07T00:30:04.227Z,80.00
2019-04-07T00:30:36.139Z,80.12
2019-04-07T00:31:07.431Z,80.17
2019-04-07T00:31:38.781Z,80.40
2019-04-07T00:32:10.103Z,80.30
2019-04-07T00:32:44.225Z,80.16
2019-04-07T00:33:18.145Z,80.28
2019-04-07T00:33:52.316Z,80.42
2019-04-07T00:34:23.822Z,79.84
2019-04-07T00:34:55.280Z,79.59
2019-04-07T00:35:31.059Z,79.65
2019-04-07T00:35:59.476Z,79.28
2019-04-07T00:36:30.705Z,78.38
2019-04-07T00:37:01.948Z,78.33
2019-04-07T00:37:33.674Z,77.98
2019-04-07T00:38:04.929Z,78.00
2019-04-07T00:38:36.154Z,78.32
2019-04-07T00:39:07.390Z,78.14
2019-04-07T00:39:38.811Z,78.02
2019-04-07T00:40:10.048Z,77.97
2019-04-07T00:40:44.958Z,78.35
2019-04-07T00:41:16.735Z,78.29
2019-04-07T00:41:48.041Z,78.16
2019-04-07T00:42:19.409Z,78.02
2019-04-07T00:42:50.743Z,78.27
2019-04-07T00:43:21.951Z,78.29
2019-04-07T00:43:53.387Z,78.06
2019-04-07T00:44:24.735Z,77.77
2019-04-07T00:44:56.051Z,78.24
2019-04-07T00:45:27.313Z,78.44
2019-04-07T00:45:58.624Z,78.61
2019-04-07T00:46:29.917Z,78.68
2019-04-07T00:47:01.125Z,78.92
2019-04-07T00:47:32.405Z,79.12
2019-04-07T00:48:03.701Z,79.39
2019-04-07T00:48:34.932Z,79.49
2019-04-07T00:49:06.222Z,79.45
2019-04-07T00:49:37.494Z,79.74
2019-04-07T00:50:08.802Z,80.07
2019-04-07T00:50:40.572Z,80.22
2019-04-07T00:51:12.411Z,80.32
2019-04-07T00:51:43.712Z,80.44
2019-04-07T00:52:14.909Z,80.54
2019-04-07T00:52:48.211Z,80.70
2019-04-07T00:53:21.301Z,80.88
2019-04-07T00:53:53.048Z,81.12
2019-04-07T00:54:25.256Z,81.28
2019-04-07T00:54:56.663Z,81.33
2019-04-07T00:55:28.435Z,81.39
2019-04-07T00:55:59.664Z,81.48
2019-04-07T00:56:31.191Z,81.77
2019-04-07T00:57:02.510Z,82.06
2019-04-07T00:57:33.780Z,82.13
2019-04-07T00:58:05.056Z,82.19
2019-04-07T00:58:36.877Z,82.22
2019-04-07T00:59:08.788Z,82.25
2019-04-07T00:59:40.817Z,82.23
2019-04-07T01:00:12.200Z,82.10
2019-04-07T01:00:43.494Z,82.18
2019-04-07T01:01:20.702Z,82.18
2019-04-07T01:01:52.613Z,82.18
2019-04-07T01:02:24.422Z,82.14
2019-04-07T01:02:58.281Z,82.17
2019-04-07T01:03:29.110Z,82.07
2019-04-07T01:04:01.078Z,82.06
2019-04-07T01:04:32.431Z,82.00
2019-04-07T01:05:03.701Z,81.77
2019-04-07T01:05:38.529Z,81.68
2019-04-07T01:06:07.886Z,81.67
2019-04-07T01:06:39.495Z,81.74
2019-04-07T01:07:11.265Z,81.58
2019-04-07T01:07:43.631Z,82.07
2019-04-07T01:08:15.561Z,82.28
2019-04-07T01:08:46.793Z,82.18
2019-04-07T01:09:18.689Z,82.04
2019-04-07T01:09:50.669Z,82.02
2019-04-07T01:10:24.241Z,81.98
2019-04-07T01:10:55.908Z,81.87
2019-04-07T01:11:27.594Z,81.78
2019-04-07T01:11:59.514Z,81.71
2019-04-07T01:12:30.900Z,81.63
2019-04-07T01:13:02.106Z,81.77
2019-04-07T01:13:33.399Z,81.75
2019-04-07T01:14:04.673Z,81.76
2019-04-07T01:14:37.905Z,81.70
2019-04-07T01:15:09.819Z,81.67
2019-04-07T01:15:41.714Z,81.66
2019-04-07T01:16:13.177Z,81.65
2019-04-07T01:16:45.513Z,81.47
2019-04-07T01:17:16.910Z,81.32
2019-04-07T01:17:48.707Z,81.29
2019-04-07T01:18:20.603Z,81.14
2019-04-07T01:18:52.005Z,81.04
2019-04-07T01:19:23.403Z,81.17
2019-04-07T01:19:55.060Z,81.68
2019-04-07T01:20:26.877Z,81.80
2019-04-07T01:20:58.342Z,81.70
2019-04-07T01:21:30.299Z,81.62
2019-04-07T01:22:02.310Z,81.61
2019-04-07T01:22:34.605Z,81.63
2019-04-07T01:23:05.927Z,81.77
2019-04-07T01:23:37.903Z,81.82
2019-04-07T01:24:09.824Z,81.95
2019-04-07T01:24:41.101Z,82.12
2019-04-07T01:25:12.395Z,82.02
2019-04-07T01:25:44.597Z,81.96
2019-04-07T01:26:16.338Z,81.86
2019-04-07T01:26:48.144Z,81.86
2019-04-07T01:27:21.738Z,81.79
2019-04-07T01:27:52.998Z,81.73
2019-04-07T01:28:24.249Z,81.69
2019-04-07T01:28:55.525Z,81.79
2019-04-07T01:29:26.773Z,82.02
2019-04-07T01:29:58.099Z,82.18
2019-04-07T01:30:33.714Z,82.27
2019-04-07T01:31:02.408Z,82.28
2019-04-07T01:31:34.126Z,82.37
2019-04-07T01:32:06.028Z,82.18
2019-04-07T01:32:38.778Z,82.04
2019-04-07T01:33:10.390Z,81.86
2019-04-07T01:33:41.668Z,81.81
2019-04-07T01:34:13.468Z,81.92
2019-04-07T01:34:47.598Z,81.86
2019-04-07T01:35:18.850Z,81.83
2019-04-07T01:35:50.414Z,81.84
2019-04-07T01:36:22.833Z,81.85
2019-04-07T01:36:54.483Z,81.95
2019-04-07T01:37:26.249Z,82.03
2019-04-07T01:37:58.249Z,82.17
2019-04-07T01:38:30.664Z,82.06
2019-04-07T01:39:01.976Z,81.16
2019-04-07T01:39:33.718Z,80.85
2019-04-07T01:40:05.678Z,80.87
2019-04-07T01:40:37.054Z,80.95
2019-04-07T01:41:08.342Z,80.96
2019-04-07T01:41:41.702Z,80.72
2019-04-07T01:42:15.033Z,80.65
2019-04-07T01:42:46.245Z,80.74
2019-04-07T01:43:17.550Z,81.37
2019-04-07T01:43:49.372Z,81.52
2019-04-07T01:44:20.695Z,81.56
2019-04-07T01:44:51.948Z,81.53
2019-04-07T01:45:23.776Z,81.57
2019-04-07T01:45:55.102Z,81.73
2019-04-07T01:46:26.460Z,81.91
2019-04-07T01:46:58.143Z,82.03
2019-04-07T01:47:29.467Z,82.00
2019-04-07T01:48:00.770Z,81.99
2019-04-07T01:48:32.072Z,82.12
2019-04-07T01:49:03.354Z,82.44
2019-04-07T01:49:34.803Z,82.56
2019-04-07T01:50:06.567Z,82.55
2019-04-07T01:50:37.744Z,82.38
2019-04-07T01:51:09.072Z,82.14
2019-04-07T01:51:40.948Z,81.94
2019-04-07T01:52:12.955Z,81.76
2019-04-07T01:52:46.012Z,81.67
2019-04-07T01:53:17.949Z,81.37
2019-04-07T01:53:49.805Z,81.08
2019-04-07T01:54:21.741Z,81.01
2019-04-07T01:54:53.662Z,81.07
2019-04-07T01:55:24.938Z,80.83
2019-04-07T01:55:56.429Z,80.80
2019-04-07T01:56:27.818Z,80.83
2019-04-07T01:57:00.180Z,80.93
2019-04-07T01:57:32.264Z,81.14
2019-04-07T01:58:04.027Z,81.38
2019-04-07T01:58:35.943Z,81.51
2019-04-07T01:59:11.257Z,81.47
2019-04-07T01:59:43.308Z,81.54
2019-04-07T02:00:17.388Z,81.64
2019-04-07T02:00:48.619Z,81.74
2019-04-07T02:01:19.842Z,81.88
2019-04-07T02:01:51.703Z,81.93
2019-04-07T02:02:23.610Z,82.08
2019-04-07T02:02:55.507Z,82.13
2019-04-07T02:03:27.567Z,82.15
2019-04-07T02:03:58.963Z,82.27
2019-04-07T02:04:30.175Z,82.46
2019-04-07T02:05:01.492Z,82.51
2019-04-07T02:05:32.907Z,82.50
2019-04-07T02:06:05.720Z,82.52
2019-04-07T02:06:37.388Z,82.57
2019-04-07T02:07:08.595Z,82.76
2019-04-07T02:07:40.074Z,82.67
2019-04-07T02:08:12.438Z,82.77
2019-04-07T02:08:43.729Z,82.85
2019-04-07T02:09:15.025Z,82.98
2019-04-07T02:09:46.885Z,83.12
2019-04-07T02:10:18.839Z,83.20
2019-04-07T02:10:50.650Z,83.20
2019-04-07T02:11:22.077Z,83.19
2019-04-07T02:11:53.839Z,82.93
2019-04-07T02:12:25.717Z,82.85
2019-04-07T02:12:57.773Z,82.84
2019-04-07T02:13:29.134Z,82.83
2019-04-07T02:14:07.059Z,82.90
2019-04-07T02:14:33.354Z,83.04
2019-04-07T02:15:04.634Z,83.00
2019-04-07T02:15:35.970Z,82.88
2019-04-07T02:16:07.218Z,82.85
2019-04-07T02:16:38.461Z,82.88
2019-04-07T02:17:09.806Z,82.89
2019-04-07T02:17:41.595Z,82.91
2019-04-07T02:18:13.536Z,82.91
2019-04-07T02:18:45.401Z,82.94
2019-04-07T02:19:17.415Z,83.00
2019-04-07T02:19:49.108Z,83.11
2019-04-07T02:20:21.115Z,83.09
2019-04-07T02:20:54.148Z,83.18
2019-04-07T02:21:25.467Z,83.25
2019-04-07T02:21:56.662Z,83.30
2019-04-07T02:22:27.953Z,83.37
2019-04-07T02:23:00.797Z,83.41
2019-04-07T02:23:32.616Z,83.47
2019-04-07T02:24:03.907Z,83.47
2019-04-07T02:24:35.651Z,83.47
2019-04-07T02:25:09.899Z,83.50
2019-04-07T02:25:41.590Z,83.56
2019-04-07T02:26:12.797Z,83.63
2019-04-07T02:26:44.441Z,83.66
2019-04-07T02:27:16.355Z,83.72
2019-04-07T02:27:47.981Z,83.78
2019-04-07T02:28:21.791Z,83.92
2019-04-07T02:28:52.614Z,83.95
2019-04-07T02:29:24.626Z,83.89
2019-04-07T02:29:55.909Z,83.97
2019-04-07T02:30:27.206Z,83.99
2019-04-07T02:30:58.989Z,84.02
2019-04-07T02:31:30.342Z,84.00
2019-04-07T02:32:01.705Z,83.97
2019-04-07T02:32:32.937Z,84.01
2019-04-07T02:33:04.408Z,84.07
2019-04-07T02:33:35.689Z,84.11
2019-04-07T02:34:07.147Z,84.11
2019-04-07T02:34:38.417Z,84.08
2019-04-07T02:35:09.729Z,84.02
2019-04-07T02:35:41.878Z,83.94
2019-04-07T02:36:22.829Z,83.91
2019-04-07T02:36:48.446Z,84.01
2019-04-07T02:37:20.608Z,83.97
2019-04-07T02:38:00.672Z,84.09
2019-04-07T02:38:31.874Z,84.12
2019-04-07T02:39:11.140Z,84.13
2019-04-07T02:39:45.064Z,83.99
2019-04-07T02:40:15.461Z,83.81
2019-04-07T02:40:47.301Z,83.72
2019-04-07T02:41:18.583Z,83.74
2019-04-07T02:41:52.092Z,83.59
2019-04-07T02:42:23.305Z,83.51
2019-04-07T02:42:55.620Z,83.50
2019-04-07T02:43:27.424Z,83.43
2019-04-07T02:43:59.704Z,83.30
2019-04-07T02:44:31.667Z,83.14
2019-04-07T02:45:02.870Z,83.00
2019-04-07T02:45:34.586Z,82.98
2019-04-07T02:46:05.939Z,82.93
2019-04-07T02:46:37.184Z,82.78
2019-04-07T02:47:08.667Z,82.63
2019-04-07T02:47:41.877Z,82.49
2019-04-07T02:48:15.511Z,82.42
2019-04-07T02:48:46.876Z,82.40
2019-04-07T02:49:19.954Z,82.41
2019-04-07T02:49:51.754Z,82.42
2019-04-07T02:50:24.119Z,82.47
2019-04-07T02:50:55.544Z,82.64
2019-04-07T02:51:26.868Z,82.70
2019-04-07T02:51:58.129Z,82.69
2019-04-07T02:52:30.552Z,82.80
2019-04-07T02:53:02.838Z,82.83
2019-04-07T02:53:34.920Z,82.92
2019-04-07T02:54:06.212Z,83.01
2019-04-07T02:54:40.199Z,82.97
2019-04-07T02:55:11.435Z,82.89
2019-04-07T02:55:42.729Z,82.84
2019-04-07T02:56:13.973Z,83.12
2019-04-07T02:56:47.318Z,83.12
2019-04-07T02:57:18.973Z,82.92
2019-04-07T02:57:50.727Z,82.99
2019-04-07T02:58:22.816Z,82.93
2019-04-07T02:58:54.945Z,82.91
2019-04-07T02:59:27.258Z,82.89
2019-04-07T02:59:58.486Z,82.80
2019-04-07T03:00:29.796Z,82.67
2019-04-07T03:01:01.916Z,82.60
2019-04-07T03:01:33.399Z,82.52
2019-04-07T03:02:04.795Z,82.52
2019-04-07T03:02:36.073Z,82.43
2019-04-07T03:03:07.273Z,82.30
2019-04-07T03:03:39.457Z,82.26
2019-04-07T03:04:11.702Z,82.17
2019-04-07T03:04:44.309Z,82.30
2019-04-07T03:05:15.819Z,82.35
2019-04-07T03:05:47.623Z,82.62
2019-04-07T03:06:34.847Z,82.88
2019-04-07T03:06:53.482Z,83.04
2019-04-07T03:07:25.091Z,83.09
2019-04-07T03:07:59.576Z,83.11
2019-04-07T03:08:30.860Z,83.15
2019-04-07T03:09:02.202Z,83.15
2019-04-07T03:09:34.750Z,83.30
2019-04-07T03:10:06.163Z,83.33
2019-04-07T03:10:38.488Z,83.30
2019-04-07T03:11:09.816Z,83.28
2019-04-07T03:11:44.591Z,83.23
2019-04-07T03:12:16.003Z,83.17
2019-04-07T03:12:53.104Z,83.27
2019-04-07T03:13:24.543Z,83.36
2019-04-07T03:13:58.910Z,83.31
2019-04-07T03:14:30.354Z,82.86
2019-04-07T03:15:02.810Z,82.67
2019-04-07T03:15:34.513Z,82.62
2019-04-07T03:16:05.847Z,82.72
2019-04-07T03:16:37.465Z,82.78
2019-04-07T03:17:08.738Z,82.81
2019-04-07T03:17:43.689Z,82.90
2019-04-07T03:18:14.455Z,82.94
2019-04-07T03:18:46.319Z,83.14
2019-04-07T03:19:17.590Z,83.15
2019-04-07T03:19:48.809Z,83.08
2019-04-07T03:20:20.043Z,83.09
2019-04-07T03:20:54.285Z,83.06
2019-04-07T03:21:25.482Z,83.05
2019-04-07T03:21:57.763Z,83.04
2019-04-07T03:22:29.250Z,82.90
2019-04-07T03:23:00.518Z,82.85
2019-04-07T03:23:35.080Z,82.74
2019-04-07T03:24:09.423Z,82.73
2019-04-07T03:24:40.710Z,82.80
2019-04-07T03:25:16.192Z,82.90
2019-04-07T03:25:48.495Z,82.90
2019-04-07T03:26:21.192Z,82.81
2019-04-07T03:26:53.364Z,82.77
2019-04-07T03:27:24.734Z,82.69
2019-04-07T03:27:59.137Z,82.60
2019-04-07T03:28:30.635Z,82.57
2019-04-07T03:29:01.956Z,82.47
2019-04-07T03:29:33.403Z,82.49
2019-04-07T03:30:06.041Z,82.46
2019-04-07T03:30:41.754Z,82.42
2019-04-07T03:31:14.760Z,82.33
2019-04-07T03:31:49.100Z,82.38
2019-04-07T03:32:21.756Z,82.36
2019-04-07T03:32:54.414Z,82.25
2019-04-07T03:33:26.096Z,82.12
2019-04-07T03:34:01.027Z,82.14
2019-04-07T03:34:33.607Z,82.35
2019-04-07T03:35:09.680Z,82.40
2019-04-07T03:35:45.201Z,82.45
2019-04-07T03:36:20.074Z,82.48
2019-04-07T03:37:14.938Z,82.54
2019-04-07T03:37:34.323Z,82.58
2019-04-07T03:37:55.008Z,82.61
2019-04-07T03:38:27.303Z,82.75
2019-04-07T03:38:59.090Z,82.90
2019-04-07T03:39:30.333Z,82.93
2019-04-07T03:40:02.576Z,82.78
2019-04-07T03:40:34.070Z,82.73
2019-04-07T03:41:05.527Z,83.07
2019-04-07T03:41:37.423Z,83.05
2019-04-07T03:42:12.447Z,82.93
2019-04-07T03:42:51.189Z,82.99
2019-04-07T03:43:22.498Z,83.04
2019-04-07T03:43:53.970Z,83.13
2019-04-07T03:44:27.656Z,83.20
2019-04-07T03:44:59.031Z,83.30
2019-04-07T03:45:30.540Z,83.32
2019-04-07T03:46:03.783Z,83.30
2019-04-07T03:46:35.089Z,83.27
2019-04-07T03:47:07.180Z,83.32
2019-04-07T03:47:39.339Z,83.30
2019-04-07T03:48:10.776Z,83.19
2019-04-07T03:48:42.001Z,83.01
2019-04-07T03:49:13.467Z,82.94
2019-04-07T03:49:46.482Z,82.96
2019-04-07T03:50:18.626Z,82.95
2019-04-07T03:50:50.746Z,83.07
2019-04-07T03:51:22.427Z,83.05
2019-04-07T03:51:55.870Z,83.68
2019-04-07T03:52:27.321Z,84.00
2019-04-07T03:53:03.200Z,83.98
2019-04-07T03:53:32.356Z,84.07
2019-04-07T03:54:03.640Z,84.17
2019-04-07T03:54:35.520Z,84.26
2019-04-07T03:55:08.672Z,84.37
2019-04-07T03:55:40.873Z,84.44
2019-04-07T03:56:12.275Z,84.16
2019-04-07T03:56:43.640Z,83.65
2019-04-07T03:57:15.144Z,83.68
2019-04-07T03:57:47.806Z,83.81
2019-04-07T03:58:20.855Z,83.86
2019-04-07T03:58:55.776Z,84.02
2019-04-07T03:59:27.144Z,84.22
2019-04-07T03:59:59.541Z,84.26
2019-04-07T04:00:31.747Z,84.30
2019-04-07T04:01:03.632Z,84.18
2019-04-07T04:01:35.666Z,84.19
2019-04-07T04:02:07.969Z,84.17
2019-04-07T04:02:39.354Z,84.25
2019-04-07T04:03:10.975Z,84.26
2019-04-07T04:03:42.269Z,84.26
2019-04-07T04:04:13.796Z,84.28
2019-04-07T04:04:45.736Z,84.18
2019-04-07T04:05:16.998Z,84.04
2019-04-07T04:05:51.261Z,84.13
2019-04-07T04:06:21.544Z,84.28
2019-04-07T04:06:53.405Z,84.51
2019-04-07T04:07:31.497Z,84.57
2019-04-07T04:07:57.978Z,84.63
2019-04-07T04:08:29.262Z,84.72
2019-04-07T04:09:00.560Z,84.75
2019-04-07T04:09:38.104Z,84.72
2019-04-07T04:10:06.762Z,84.71
2019-04-07T04:10:38.521Z,84.53
2019-04-07T04:11:09.954Z,84.45
2019-04-07T04:11:41.306Z,84.42
2019-04-07T04:12:12.601Z,84.46
2019-04-07T04:12:43.871Z,84.61
2019-04-07T04:13:16.536Z,84.72
2019-04-07T04:13:51.033Z,85.09
2019-04-07T04:14:22.342Z,85.42
2019-04-07T04:14:53.603Z,85.53
2019-04-07T04:15:24.911Z,85.57
2019-04-07T04:15:56.679Z,85.55
2019-04-07T04:16:29.065Z,85.53
2019-04-07T04:17:00.337Z,85.35
2019-04-07T04:17:33.083Z,85.12
2019-04-07T04:18:05.368Z,84.78
2019-04-07T04:18:37.547Z,84.66
2019-04-07T04:19:11.350Z,84.54
2019-04-07T04:19:42.834Z,84.41
2019-04-07T04:20:14.756Z,84.33
2019-04-07T04:20:46.450Z,83.62
2019-04-07T04:21:17.852Z,83.33
2019-04-07T04:21:49.221Z,83.27
2019-04-07T04:22:21.054Z,83.33
2019-04-07T04:22:52.735Z,83.32
2019-04-07T04:23:24.306Z,83.25
2019-04-07T04:23:55.646Z,83.15
2019-04-07T04:24:28.548Z,83.16
2019-04-07T04:25:02.925Z,83.31
2019-04-07T04:25:37.481Z,83.28
2019-04-07T04:26:09.618Z,83.30
2019-04-07T04:26:41.989Z,83.35
2019-04-07T04:27:14.668Z,83.45
2019-04-07T04:27:46.044Z,83.62
2019-04-07T04:28:18.038Z,83.70
2019-04-07T04:28:49.271Z,83.77
2019-04-07T04:29:20.670Z,83.86
2019-04-07T04:29:55.285Z,83.88
2019-04-07T04:30:27.661Z,83.75
2019-04-07T04:30:59.877Z,83.69
2019-04-07T04:31:31.168Z,83.59
2019-04-07T04:32:03.092Z,83.61
2019-04-07T04:32:34.416Z,83.57
2019-04-07T04:33:06.272Z,83.63
2019-04-07T04:33:37.846Z,83.40
2019-04-07T04:34:09.899Z,83.25
2019-04-07T04:34:41.247Z,83.07
2019-04-07T04:35:12.439Z,82.74
2019-04-07T04:35:44.138Z,82.61
2019-04-07T04:36:15.584Z,82.48
2019-04-07T04:36:47.874Z,82.46
2019-04-07T04:37:34.733Z,82.40
2019-04-07T04:37:55.490Z,82.54
2019-04-07T04:38:29.781Z,82.66
2019-04-07T04:39:00.552Z,82.22
2019-04-07T04:39:31.977Z,81.85
2019-04-07T04:40:03.247Z,81.60
2019-04-07T04:40:34.683Z,81.56
2019-04-07T04:41:06.880Z,81.76
2019-04-07T04:41:43.377Z,82.07
2019-04-07T04:42:14.274Z,82.22
2019-04-07T04:42:48.697Z,82.25
2019-04-07T04:43:24.244Z,82.19
2019-04-07T04:43:55.259Z,82.19
2019-04-07T04:44:26.647Z,82.34
2019-04-07T04:44:58.853Z,82.61
2019-04-07T04:45:30.254Z,82.45
2019-04-07T04:46:01.595Z,82.34
2019-04-07T04:46:34.858Z,82.33
2019-04-07T04:47:06.118Z,82.28
2019-04-07T04:47:40.630Z,82.23
2019-04-07T04:48:13.198Z,82.05
2019-04-07T04:48:47.322Z,81.87
2019-04-07T04:49:19.015Z,81.83
2019-04-07T04:49:54.046Z,81.50
2019-04-07T04:50:25.851Z,81.33
2019-04-07T04:50:58.047Z,81.33
2019-04-07T04:51:35.301Z,81.33
2019-04-07T04:52:03.907Z,81.39
2019-04-07T04:52:36.646Z,81.44
2019-04-07T04:53:09.334Z,81.48
2019-04-07T04:53:40.923Z,81.58
2019-04-07T04:54:14.414Z,81.81
2019-04-07T04:54:45.134Z,81.99
2019-04-07T04:55:16.647Z,82.26
2019-04-07T04:55:51.496Z,82.33
2019-04-07T04:56:22.921Z,82.39
2019-04-07T04:56:54.272Z,82.36
2019-04-07T04:57:25.591Z,82.27
2019-04-07T04:57:57.771Z,82.33
2019-04-07T04:58:32.297Z,82.30
2019-04-07T04:59:11.394Z,82.34
2019-04-07T04:59:42.709Z,82.07
2019-04-07T05:00:13.969Z,82.07
2019-04-07T05:00:45.437Z,81.74
2019-04-07T05:01:17.487Z,81.57
2019-04-07T05:01:48.864Z,81.23
2019-04-07T05:02:20.203Z,81.24
2019-04-07T05:02:51.550Z,81.35
2019-04-07T05:03:22.840Z,81.35
2019-04-07T05:03:55.882Z,81.34
2019-04-07T05:04:27.200Z,80.86
2019-04-07T05:04:59.287Z,79.92
2019-04-07T05:05:30.763Z,79.92
2019-04-07T05:06:02.372Z,79.87
2019-04-07T05:06:36.942Z,79.96
2019-04-07T05:07:08.323Z,80.84
2019-04-07T05:07:49.827Z,80.50
2019-04-07T05:08:12.880Z,80.67
2019-04-07T05:08:44.414Z,81.06
2019-04-07T05:09:15.773Z,81.07
2019-04-07T05:09:51.767Z,81.06
2019-04-07T05:10:20.047Z,81.10
2019-04-07T05:10:51.864Z,81.10
2019-04-07T05:11:23.900Z,80.55
2019-04-07T05:11:55.314Z,80.35
2019-04-07T05:12:26.583Z,80.51
2019-04-07T05:12:58.176Z,80.72
2019-04-07T05:13:31.579Z,80.99
2019-04-07T05:14:03.728Z,80.93
2019-04-07T05:14:35.087Z,80.76
2019-04-07T05:15:06.382Z,80.67
2019-04-07T05:15:37.859Z,80.39
2019-04-07T05:16:10.607Z,80.35
2019-04-07T05:16:42.499Z,80.50
2019-04-07T05:17:13.934Z,81.00
2019-04-07T05:17:45.181Z,81.40
2019-04-07T05:18:16.661Z,81.36
2019-04-07T05:18:48.176Z,81.17
2019-04-07T05:19:19.468Z,80.79
2019-04-07T05:19:51.163Z,80.87
2019-04-07T05:20:22.938Z,80.71
2019-04-07T05:20:54.309Z,80.42
2019-04-07T05:21:26.151Z,80.29
2019-04-07T05:21:58.173Z,80.55
2019-04-07T05:22:33.254Z,81.05
2019-04-07T05:23:05.230Z,81.14
2019-04-07T05:23:36.553Z,81.20
2019-04-07T05:24:07.757Z,81.35
2019-04-07T05:24:38.996Z,81.58
2019-04-07T05:25:10.197Z,81.57
2019-04-07T05:25:41.401Z,81.58
2019-04-07T05:26:12.606Z,81.58
2019-04-07T05:26:43.816Z,81.59
2019-04-07T05:27:15.033Z,81.62
2019-04-07T05:27:46.243Z,81.85
2019-04-07T05:28:17.529Z,81.80
2019-04-07T05:28:49.197Z,81.72
2019-04-07T05:29:20.418Z,81.73
2019-04-07T05:29:52.071Z,82.08
2019-04-07T05:30:23.488Z,82.34
2019-04-07T05:30:54.721Z,82.66
2019-04-07T05:31:25.953Z,82.75
2019-04-07T05:31:57.157Z,82.73
2019-04-07T05:32:28.708Z,82.63
2019-04-07T05:32:59.866Z,82.60
2019-04-07T05:33:31.126Z,82.27
2019-04-07T05:34:02.847Z,81.76
2019-04-07T05:34:34.555Z,81.61
2019-04-07T05:35:06.046Z,81.77
2019-04-07T05:35:37.937Z,81.78
2019-04-07T05:36:09.211Z,81.30
2019-04-07T05:36:40.812Z,81.44
2019-04-07T05:37:12.009Z,81.83
2019-04-07T05:37:43.426Z,82.01
2019-04-07T05:38:14.720Z,82.13
2019-04-07T05:38:46.660Z,82.50
2019-04-07T05:39:17.936Z,82.72
2019-04-07T05:39:49.182Z,82.76
2019-04-07T05:40:20.402Z,82.86
2019-04-07T05:40:52.131Z,82.91
2019-04-07T05:41:23.387Z,83.08
2019-04-07T05:41:54.771Z,83.06
2019-04-07T05:42:25.976Z,83.14
2019-04-07T05:42:57.184Z,83.23
2019-04-07T05:43:28.402Z,83.26
2019-04-07T05:43:59.627Z,83.27
2019-04-07T05:44:30.848Z,83.36
2019-04-07T05:45:02.237Z,83.31
2019-04-07T05:45:35.522Z,82.98
2019-04-07T05:46:08.055Z,82.75
2019-04-07T05:46:42.306Z,82.45
2019-04-07T05:47:13.844Z,82.39
2019-04-07T05:47:48.735Z,82.53
2019-04-07T05:48:20.128Z,82.51
2019-04-07T05:48:52.729Z,82.29
2019-04-07T05:49:24.217Z,82.37
2019-04-07T05:49:58.757Z,82.51
2019-04-07T05:50:28.851Z,82.75
2019-04-07T05:51:01.106Z,82.96
2019-04-07T05:51:32.741Z,82.91
2019-04-07T05:52:05.672Z,82.59
2019-04-07T05:52:39.682Z,82.53
2019-04-07T05:53:13.459Z,82.03
2019-04-07T05:53:46.468Z,81.83
2019-04-07T05:54:17.372Z,81.59
2019-04-07T05:54:49.970Z,81.53
2019-04-07T05:55:24.008Z,81.69
2019-04-07T05:55:55.557Z,81.64
2019-04-07T05:56:28.422Z,81.65
2019-04-07T05:57:01.546Z,82.12
2019-04-07T05:57:34.849Z,82.43
2019-04-07T05:58:08.334Z,82.49
2019-04-07T05:58:41.097Z,82.47
2019-04-07T05:59:13.846Z,82.23
2019-04-07T05:59:45.977Z,81.62
2019-04-07T06:00:17.245Z,81.40
2019-04-07T06:00:49.953Z,81.37
2019-04-07T06:01:23.385Z,80.86
2019-04-07T06:01:59.319Z,80.74
2019-04-07T06:02:29.259Z,80.56
2019-04-07T06:03:04.545Z,80.57
2019-04-07T06:03:33.110Z,80.65
2019-04-07T06:04:04.328Z,80.33
2019-04-07T06:04:36.089Z,80.32
2019-04-07T06:05:07.347Z,80.47
2019-04-07T06:05:38.581Z,80.44
2019-04-07T06:06:10.493Z,79.98
2019-04-07T06:06:42.069Z,79.97
2019-04-07T06:07:13.710Z,80.35
2019-04-07T06:07:45.829Z,80.50
2019-04-07T06:08:25.800Z,81.01
2019-04-07T06:08:50.649Z,81.36
2019-04-07T06:09:21.983Z,81.89
2019-04-07T06:09:53.527Z,82.13
2019-04-07T06:10:28.509Z,81.89
2019-04-07T06:11:01.320Z,81.58
2019-04-07T06:11:33.034Z,81.44
2019-04-07T06:12:08.477Z,81.11
2019-04-07T06:12:39.285Z,80.95
2019-04-07T06:13:13.191Z,81.31
2019-04-07T06:13:44.627Z,81.49
2019-04-07T06:14:16.696Z,81.10
2019-04-07T06:14:48.345Z,80.60
2019-04-07T06:15:22.162Z,80.67
2019-04-07T06:15:53.215Z,80.43
2019-04-07T06:16:24.681Z,80.09
2019-04-07T06:16:56.038Z,79.69
2019-04-07T06:17:28.299Z,79.73
2019-04-07T06:18:01.372Z,79.59
2019-04-07T06:18:34.181Z,79.71
2019-04-07T06:19:07.969Z,79.85
2019-04-07T06:19:41.119Z,79.92
2019-04-07T06:20:14.120Z,79.77
2019-04-07T06:20:46.350Z,79.59
2019-04-07T06:21:17.413Z,79.77
2019-04-07T06:21:49.618Z,79.61
2019-04-07T06:22:21.992Z,79.21
2019-04-07T06:22:54.673Z,79.14
2019-04-07T06:23:29.505Z,79.03
2019-04-07T06:24:00.603Z,78.80
2019-04-07T06:24:33.982Z,78.24
2019-04-07T06:25:05.800Z,77.56
2019-04-07T06:25:41.791Z,77.79
2019-04-07T06:26:11.840Z,78.04
2019-04-07T06:26:47.625Z,77.60
2019-04-07T06:27:17.845Z,77.47
2019-04-07T06:27:50.084Z,77.51
2019-04-07T06:28:21.369Z,77.43
2019-04-07T06:28:57.396Z,77.40
2019-04-07T06:29:26.440Z,77.74
2019-04-07T06:30:00.045Z,78.04
2019-04-07T06:30:32.344Z,77.57
2019-04-07T06:31:03.674Z,77.55
2019-04-07T06:31:34.887Z,77.51
2019-04-07T06:32:09.155Z,77.59
2019-04-07T06:32:39.746Z,78.76
2019-04-07T06:33:11.263Z,78.12
2019-04-07T06:33:42.509Z,77.51
2019-04-07T06:34:13.772Z,78.09
2019-04-07T06:34:45.887Z,78.46
2019-04-07T06:35:18.265Z,78.38
2019-04-07T06:35:49.933Z,77.70
2019-04-07T06:36:21.241Z,77.76
2019-04-07T06:36:55.259Z,77.78
2019-04-07T06:37:27.799Z,77.68
2019-04-07T06:38:04.079Z,78.05
2019-04-07T06:38:34.923Z,78.46
2019-04-07T06:39:04.654Z,78.88
2019-04-07T06:39:36.163Z,79.23
2019-04-07T06:40:09.995Z,79.51
2019-04-07T06:40:41.216Z,79.19
2019-04-07T06:41:12.680Z,78.93
2019-04-07T06:41:44.364Z,78.70
2019-04-07T06:42:15.543Z,78.76
2019-04-07T06:42:46.785Z,78.85
2019-04-07T06:43:18.677Z,79.66
2019-04-07T06:43:50.617Z,78.31
2019-04-07T06:44:23.222Z,78.00
2019-04-07T06:44:55.389Z,78.47
2019-04-07T06:45:26.671Z,78.78
2019-04-07T06:45:58.474Z,78.89
2019-04-07T06:46:29.689Z,79.18
2019-04-07T06:47:03.451Z,79.28
2019-04-07T06:47:34.490Z,79.00
2019-04-07T06:48:08.212Z,79.12
2019-04-07T06:48:40.284Z,79.06
2019-04-07T06:49:13.778Z,78.71
2019-04-07T06:49:46.951Z,78.13
2019-04-07T06:50:17.935Z,78.13
2019-04-07T06:50:56.667Z,78.68
2019-04-07T06:51:22.082Z,78.27
2019-04-07T06:51:53.296Z,78.44
2019-04-07T06:52:24.797Z,79.19
2019-04-07T06:52:56.650Z,79.28